createdAt,value
2022-08-03T00:02:19.702Z,100293.31
2022-08-03T00:04:47.646Z,100299.38
2022-08-03T00:07:15.546Z,100297.19
2022-08-03T00:09:43.164Z,100295.84
2022-08-03T00:14:38.294Z,100288.06
2022-08-03T00:17:05.856Z,100290.25
2022-08-03T00:19:34.813Z,100290.75
2022-08-03T00:22:02.340Z,100282.53
2022-08-03T00:26:58.844Z,100283.19
2022-08-03T00:29:26.388Z,100292.94
2022-08-03T00:34:36.417Z,100298.81
2022-08-03T00:37:16.283Z,100302.81
2022-08-03T00:39:46.010Z,100310.22
2022-08-03T00:42:14.057Z,100314.19
2022-08-03T00:44:43.665Z,100309.44
2022-08-03T00:47:12.398Z,100314.34
2022-08-03T00:49:41.324Z,100315.88
2022-08-03T00:52:10.517Z,100314.81
2022-08-03T00:54:38.833Z,100312.81
2022-08-03T00:57:07.340Z,100318.19
2022-08-03T00:59:35.307Z,100319.00
2022-08-03T01:02:02.960Z,100314.78
2022-08-03T01:04:31.821Z,100310.88
2022-08-03T01:07:23.138Z,100310.03
2022-08-03T01:09:58.287Z,100308.16
2022-08-03T01:12:49.012Z,100315.72
2022-08-03T01:15:24.142Z,100316.34
2022-08-03T01:18:08.143Z,100317.50
2022-08-03T01:20:41.425Z,100316.28
2022-08-03T01:23:18.108Z,100316.72
2022-08-03T01:26:24.427Z,100313.84
2022-08-03T01:29:11.201Z,100316.03
2022-08-03T01:32:54.551Z,100311.63
2022-08-03T01:34:40.819Z,100315.16
2022-08-03T01:37:11.110Z,100307.75
2022-08-03T01:39:41.594Z,100311.41
2022-08-03T01:42:14.265Z,100304.00
2022-08-03T01:44:45.117Z,100307.84
2022-08-03T01:47:13.448Z,100311.53
2022-08-03T01:49:44.919Z,100310.38
2022-08-03T01:52:17.519Z,100309.59
2022-08-03T01:54:48.852Z,100303.16
2022-08-03T01:57:17.854Z,100309.63
2022-08-03T01:59:48.818Z,100310.06
2022-08-03T02:02:33.062Z,100312.91
2022-08-03T02:05:04.707Z,100311.00
2022-08-03T02:07:34.608Z,100304.22
2022-08-03T02:10:06.056Z,100318.50
2022-08-03T02:12:35.028Z,100303.06
2022-08-03T02:15:03.697Z,100304.13
2022-08-03T02:17:38.938Z,100310.19
2022-08-03T02:20:11.302Z,100306.97
2022-08-03T02:22:45.067Z,100311.75
2022-08-03T02:25:14.256Z,100312.59
2022-08-03T02:27:49.413Z,100311.88
2022-08-03T02:30:17.220Z,100311.16
2022-08-03T02:32:52.137Z,100311.47
2022-08-03T02:35:23.048Z,100299.75
2022-08-03T02:37:58.969Z,100308.13
2022-08-03T02:40:29.336Z,100296.53
2022-08-03T02:43:00.571Z,100299.06
2022-08-03T02:45:29.973Z,100284.22
2022-08-03T02:48:03.764Z,100287.59
2022-08-03T02:50:33.808Z,100291.78
2022-08-03T02:53:03.634Z,100286.69
2022-08-03T02:55:35.110Z,100293.97
2022-08-03T02:58:04.555Z,100299.59
2022-08-03T03:00:34.535Z,100298.72
2022-08-03T03:03:04.576Z,100287.66
2022-08-03T03:05:52.162Z,100294.03
2022-08-03T03:08:27.474Z,100289.06
2022-08-03T03:10:59.523Z,100297.50
2022-08-03T03:13:31.122Z,100297.63
2022-08-03T03:16:02.691Z,100299.88
2022-08-03T03:18:33.313Z,100291.38
2022-08-03T03:21:04.975Z,100297.09
2022-08-03T03:23:36.726Z,100296.13
2022-08-03T03:26:05.544Z,100300.50
2022-08-03T03:28:34.471Z,100310.00
2022-08-03T03:31:02.120Z,100304.47
2022-08-03T03:33:30.205Z,100304.31
2022-08-03T03:35:58.801Z,100308.00
2022-08-03T03:38:26.990Z,100304.47
2022-08-03T03:40:56.044Z,100300.47
2022-08-03T03:43:24.336Z,100293.50
2022-08-03T03:45:53.795Z,100296.41
2022-08-03T03:48:21.742Z,100298.03
2022-08-03T03:50:50.117Z,100303.38
2022-08-03T03:53:17.734Z,100299.09
2022-08-03T03:55:59.131Z,100301.16
2022-08-03T03:58:31.709Z,100293.44
2022-08-03T04:00:59.956Z,100300.53
2022-08-03T04:03:27.962Z,100301.72
2022-08-03T04:06:14.254Z,100302.03
2022-08-03T04:09:00.404Z,100297.63
2022-08-03T04:11:32.161Z,100300.53
2022-08-03T04:14:13.347Z,100315.19
2022-08-03T04:16:45.305Z,100308.38
2022-08-03T04:19:22.719Z,100303.91
2022-08-03T04:21:56.878Z,100294.78
2022-08-03T04:24:30.055Z,100307.25
2022-08-03T04:26:59.355Z,100303.13
2022-08-03T04:29:29.582Z,100294.44
2022-08-03T04:32:00.084Z,100302.66
2022-08-03T04:34:28.316Z,100296.53
2022-08-03T04:37:00.713Z,100294.59
2022-08-03T04:39:31.345Z,100300.69
2022-08-03T04:42:08.068Z,100298.22
2022-08-03T04:44:42.081Z,100295.78
2022-08-03T04:47:09.791Z,100292.78
2022-08-03T04:49:38.877Z,100305.06
2022-08-03T04:52:10.123Z,100298.88
2022-08-03T04:54:42.929Z,100291.53
2022-08-03T04:57:22.874Z,100297.94
2022-08-03T05:00:01.390Z,100302.84
2022-08-03T05:02:31.109Z,100296.34
2022-08-03T05:04:58.937Z,100297.00
2022-08-03T05:07:26.617Z,100303.75
2022-08-03T05:10:15.772Z,100306.25
2022-08-03T05:12:46.156Z,100303.72
2022-08-03T05:15:14.198Z,100298.50
2022-08-03T05:17:42.030Z,100300.31
2022-08-03T05:20:10.808Z,100296.81
2022-08-03T05:22:38.835Z,100288.91
2022-08-03T05:25:07.061Z,100299.88
2022-08-03T05:27:35.277Z,100299.69
2022-08-03T05:30:32.341Z,100294.63
2022-08-03T05:32:51.978Z,100294.09
2022-08-03T05:36:02.676Z,100303.88
2022-08-03T05:38:07.310Z,100303.06
2022-08-03T05:40:36.993Z,100306.59
2022-08-03T05:43:04.861Z,100316.19
2022-08-03T05:45:32.494Z,100321.25
2022-08-03T05:48:00.261Z,100329.16
2022-08-03T06:03:13.936Z,100334.53
2022-08-03T06:05:43.293Z,100334.34
2022-08-03T06:08:23.528Z,100335.66
2022-08-03T06:10:51.171Z,100339.53
2022-08-03T06:13:19.060Z,100335.31
2022-08-03T06:15:46.666Z,100321.50
2022-08-03T06:18:14.244Z,100322.84
2022-08-03T06:20:41.850Z,100328.56
2022-08-03T06:23:15.937Z,100327.22
2022-08-03T06:25:45.652Z,100332.88
2022-08-03T06:28:51.727Z,100327.78
2022-08-03T06:31:06.587Z,100329.66
2022-08-03T06:34:30.489Z,100336.88
2022-08-03T06:36:22.018Z,100321.34
2022-08-03T06:38:49.642Z,100324.34
2022-08-03T06:41:17.221Z,100322.59
2022-08-03T06:44:03.350Z,100331.84
2022-08-03T06:46:32.023Z,100336.19
2022-08-03T06:48:59.934Z,100331.16
2022-08-03T06:52:05.268Z,100333.38
2022-08-03T06:54:15.211Z,100324.94
2022-08-03T06:56:42.993Z,100326.13
2022-08-03T06:59:10.688Z,100322.06
2022-08-03T07:01:59.335Z,100332.66
2022-08-03T07:04:26.917Z,100320.16
2022-08-03T07:06:55.324Z,100327.34
2022-08-03T07:09:23.106Z,100331.00
2022-08-03T07:11:50.745Z,100329.47
2022-08-03T07:14:18.407Z,100328.91
2022-08-03T07:16:45.970Z,100327.34
2022-08-03T07:19:13.735Z,100331.53
2022-08-03T07:21:41.291Z,100328.50
2022-08-03T07:24:08.925Z,100331.56
2022-08-03T07:26:36.529Z,100325.97
2022-08-03T07:29:04.265Z,100320.28
2022-08-03T07:31:42.578Z,100326.56
2022-08-03T07:34:10.288Z,100326.56
2022-08-03T07:36:38.312Z,100324.59
2022-08-03T07:39:15.801Z,100328.19
2022-08-03T07:41:46.859Z,100324.28
2022-08-03T07:44:14.677Z,100309.63
2022-08-03T07:46:42.233Z,100319.97
2022-08-03T07:49:11.578Z,100321.34
2022-08-03T07:51:39.534Z,100324.81
2022-08-03T07:54:07.824Z,100322.69
2022-08-03T07:56:35.649Z,100323.66
2022-08-03T07:59:04.070Z,100314.31
2022-08-03T08:01:34.199Z,100312.03
2022-08-03T08:04:01.926Z,100316.72
2022-08-03T08:06:29.874Z,100305.38
2022-08-03T08:09:02.361Z,100297.47
2022-08-03T08:11:30.162Z,100304.59
2022-08-03T08:13:57.924Z,100308.28
2022-08-03T08:16:25.510Z,100309.47
2022-08-03T08:18:53.188Z,100315.53
2022-08-03T08:21:20.807Z,100314.97
2022-08-03T08:23:54.940Z,100309.63
2022-08-03T08:26:25.168Z,100315.28
2022-08-03T08:28:53.204Z,100309.47
2022-08-03T08:31:20.779Z,100318.38
2022-08-03T08:34:03.775Z,100313.63
2022-08-03T08:36:34.250Z,100314.69
2022-08-03T08:39:02.347Z,100309.94
2022-08-03T08:41:33.854Z,100310.53
2022-08-03T08:44:02.212Z,100309.06
2022-08-03T08:46:33.569Z,100310.72
2022-08-03T08:49:04.994Z,100316.19
2022-08-03T08:51:54.601Z,100312.88
2022-08-03T08:54:26.091Z,100304.19
2022-08-03T08:56:56.205Z,100307.03
2022-08-03T08:59:24.474Z,100312.47
2022-08-03T09:01:56.808Z,100309.34
2022-08-03T09:04:24.964Z,100321.53
2022-08-03T09:07:10.806Z,100310.78
2022-08-03T09:10:10.982Z,100311.78
2022-08-03T09:12:41.828Z,100319.56
2022-08-03T09:15:38.223Z,100341.41
2022-08-03T09:18:05.966Z,100350.59
2022-08-03T09:20:35.138Z,100355.25
2022-08-03T09:23:19.110Z,100350.28
2022-08-03T09:26:00.141Z,100343.91
2022-08-03T09:29:00.005Z,100344.94
2022-08-03T09:31:42.998Z,100351.75
2022-08-03T09:34:13.846Z,100357.19
2022-08-03T09:36:50.266Z,100338.91
2022-08-03T09:39:18.743Z,100347.38
2022-08-03T09:42:05.451Z,100357.94
2022-08-03T09:44:38.922Z,100366.06
2022-08-03T09:47:06.697Z,100375.00
2022-08-03T09:49:34.449Z,100367.84
2022-08-03T09:52:33.958Z,100372.34
2022-08-03T09:55:01.609Z,100379.38
2022-08-03T09:57:30.890Z,100384.91
2022-08-03T10:00:12.157Z,100389.41
2022-08-03T10:02:45.403Z,100395.63
2022-08-03T10:05:19.396Z,100389.69
2022-08-03T10:07:49.895Z,100382.94
2022-08-03T10:10:31.872Z,100387.78
2022-08-03T10:13:00.398Z,100387.44
2022-08-03T10:16:24.077Z,100388.47
2022-08-03T10:18:16.110Z,100378.44
2022-08-03T10:20:51.806Z,100378.69
2022-08-03T10:23:21.758Z,100384.91
2022-08-03T10:25:53.423Z,100383.97
2022-08-03T10:28:22.506Z,100390.06
2022-08-03T10:30:52.988Z,100394.56
2022-08-03T10:33:51.218Z,100399.97
2022-08-03T10:36:13.176Z,100395.25
2022-08-03T10:38:47.444Z,100391.16
2022-08-03T10:41:19.359Z,100395.31
2022-08-03T10:44:05.621Z,100410.66
2022-08-03T10:46:34.865Z,100388.41
2022-08-03T10:49:03.755Z,100387.09
2022-08-03T10:51:32.459Z,100387.94
2022-08-03T10:54:01.901Z,100390.16
2022-08-03T10:56:51.211Z,100380.31
2022-08-03T10:59:22.980Z,100386.91
2022-08-03T11:01:59.085Z,100383.78
2022-08-03T11:04:27.397Z,100381.25
2022-08-03T11:07:19.769Z,100383.63
2022-08-03T11:09:49.825Z,100376.72
2022-08-03T11:12:33.839Z,100369.47
2022-08-03T11:15:08.930Z,100369.69
2022-08-03T11:17:46.582Z,100366.84
2022-08-03T11:20:46.028Z,100383.53
2022-08-03T11:23:15.793Z,100387.63
2022-08-03T11:26:12.454Z,100392.19
2022-08-03T11:28:41.415Z,100371.84
2022-08-03T11:31:49.882Z,100372.59
2022-08-03T11:34:14.876Z,100376.78
2022-08-03T11:37:27.259Z,100374.19
2022-08-03T11:39:57.724Z,100375.59
2022-08-03T11:42:26.376Z,100373.06
2022-08-03T11:44:59.482Z,100370.03
2022-08-03T11:47:29.274Z,100352.19
2022-08-03T11:50:00.679Z,100350.75
2022-08-03T11:52:35.083Z,100356.84
2022-08-03T11:55:08.527Z,100355.84
2022-08-03T11:59:01.447Z,100352.19
2022-08-03T12:00:33.334Z,100351.28
2022-08-03T12:03:02.404Z,100347.94
2022-08-03T12:05:38.189Z,100338.25
2022-08-03T12:08:08.996Z,100331.16
2022-08-03T12:10:38.072Z,100336.50
2022-08-03T12:14:45.267Z,100334.75
2022-08-03T12:15:59.385Z,100329.41
2022-08-03T12:18:27.116Z,100320.66
2022-08-03T12:21:05.010Z,100319.44
2022-08-03T12:23:37.547Z,100311.16
2022-08-03T12:26:10.420Z,100310.00
2022-08-03T12:28:38.949Z,100302.13
2022-08-03T12:31:09.402Z,100303.63
2022-08-03T12:33:58.781Z,100308.06
2022-08-03T12:36:27.885Z,100299.81
2022-08-03T12:39:07.204Z,100301.91
2022-08-03T12:41:39.013Z,100308.63
2022-08-03T12:44:08.180Z,100310.34
2022-08-03T12:46:37.342Z,100305.88
2022-08-03T12:49:11.142Z,100310.00
2022-08-03T12:52:04.054Z,100302.03
2022-08-03T12:54:35.930Z,100303.78
2022-08-03T12:57:03.566Z,100308.75
2022-08-03T12:59:35.373Z,100306.28
2022-08-03T13:02:20.247Z,100296.00
2022-08-03T13:04:53.392Z,100289.47
2022-08-03T13:07:21.669Z,100293.06
2022-08-03T13:09:55.070Z,100288.63
2022-08-03T13:12:24.965Z,100291.28
2022-08-03T13:14:56.235Z,100302.81
2022-08-03T13:17:24.402Z,100300.72
2022-08-03T13:19:52.291Z,100294.13
2022-08-03T13:22:25.056Z,100290.13
2022-08-03T13:24:58.365Z,100305.78
2022-08-03T13:28:03.348Z,100299.53
2022-08-03T13:30:21.071Z,100307.94
2022-08-03T13:33:00.212Z,100312.31
2022-08-03T13:35:27.867Z,100309.34
2022-08-03T13:37:55.485Z,100310.63
2022-08-03T13:40:23.666Z,100309.47
2022-08-03T13:42:58.103Z,100314.91
2022-08-03T13:45:27.553Z,100325.47
2022-08-03T13:47:55.098Z,100328.72
2022-08-03T13:50:22.661Z,100341.97
2022-08-03T13:52:50.157Z,100340.50
2022-08-03T13:55:17.731Z,100350.88
2022-08-03T13:58:06.580Z,100353.78
2022-08-03T14:00:32.885Z,100357.06
2022-08-03T14:03:09.118Z,100358.88
2022-08-03T14:05:41.014Z,100371.44
2022-08-03T14:08:09.243Z,100381.91
2022-08-03T14:10:45.834Z,100393.56
2022-08-03T14:13:17.881Z,100391.72
2022-08-03T14:15:51.226Z,100389.09
2022-08-03T14:18:28.673Z,100395.91
2022-08-03T14:21:06.282Z,100400.50
2022-08-03T14:23:36.490Z,100407.38
2022-08-03T14:26:05.785Z,100403.75
2022-08-03T14:28:34.190Z,100416.56
2022-08-03T14:31:02.740Z,100421.13
2022-08-03T14:33:30.299Z,100418.53
2022-08-03T14:35:58.009Z,100418.22
2022-08-03T14:38:25.626Z,100412.25
2022-08-03T14:40:53.343Z,100417.94
2022-08-03T14:43:23.873Z,100403.31
2022-08-03T14:45:53.715Z,100387.81
2022-08-03T14:50:34.482Z,100389.69
2022-08-03T14:51:10.583Z,100385.09
2022-08-03T14:53:38.345Z,100388.19
2022-08-03T14:56:10.158Z,100388.53
2022-08-03T14:58:38.731Z,100385.84
2022-08-03T15:02:04.485Z,100379.13
2022-08-03T15:03:55.426Z,100369.66
2022-08-03T15:06:23.015Z,100366.16
2022-08-03T15:09:13.798Z,100366.25
2022-08-03T15:11:38.669Z,100369.25
2022-08-03T15:14:09.396Z,100373.81
2022-08-03T15:16:38.634Z,100395.25
2022-08-03T15:20:05.477Z,100404.31
2022-08-03T15:21:54.341Z,100420.31
2022-08-03T15:24:22.043Z,100412.63
2022-08-03T15:26:51.421Z,100418.72
2022-08-03T15:30:07.717Z,100423.91
2022-08-03T15:32:09.602Z,100442.38
2022-08-03T15:34:37.458Z,100439.25
2022-08-03T15:37:16.214Z,100445.47
2022-08-03T15:39:59.621Z,100442.25
2022-08-03T15:42:33.574Z,100454.75
2022-08-03T15:45:01.479Z,100457.56
2022-08-03T15:47:29.301Z,100458.38
2022-08-03T15:49:57.119Z,100459.41
2022-08-03T15:52:24.777Z,100472.38
2022-08-03T15:54:52.542Z,100476.59
2022-08-03T15:57:20.932Z,100490.50
2022-08-03T15:59:48.787Z,100496.91
2022-08-03T16:02:16.479Z,100492.72
2022-08-03T16:04:44.222Z,100490.78
2022-08-03T16:07:12.895Z,100489.47
2022-08-03T16:09:43.317Z,100499.53
2022-08-03T16:12:15.721Z,100500.06
2022-08-03T16:14:52.734Z,100486.94
2022-08-03T16:17:21.924Z,100487.44
2022-08-03T16:19:50.425Z,100486.78
2022-08-03T16:22:25.859Z,100477.88
2022-08-03T16:24:54.754Z,100495.72
2022-08-03T16:27:56.804Z,100481.75
2022-08-03T16:30:12.456Z,100479.56
2022-08-03T16:32:40.087Z,100472.16
2022-08-03T16:35:08.390Z,100474.16
2022-08-03T16:37:38.728Z,100479.41
2022-08-03T16:40:17.088Z,100469.28
2022-08-03T16:42:45.749Z,100485.47
2022-08-03T16:45:13.677Z,100485.97
2022-08-03T16:47:41.397Z,100483.59
2022-08-03T16:50:15.815Z,100478.88
2022-08-03T16:52:47.381Z,100476.88
2022-08-03T16:55:16.036Z,100476.03
2022-08-03T16:58:05.158Z,100488.81
2022-08-03T17:00:41.798Z,100484.97
2022-08-03T17:03:18.742Z,100490.50
2022-08-03T17:05:50.125Z,100486.97
2022-08-03T17:08:26.184Z,100493.03
2022-08-03T17:10:56.108Z,100488.31
2022-08-03T17:13:38.956Z,100504.84
2022-08-03T17:16:10.530Z,100508.72
2022-08-03T17:18:47.388Z,100511.41
2022-08-03T17:21:16.762Z,100512.75
2022-08-03T17:23:54.801Z,100517.28
2022-08-03T17:26:23.776Z,100524.06
2022-08-03T17:29:11.355Z,100523.88
2022-08-03T17:31:49.336Z,100523.53
2022-08-03T17:34:19.161Z,100527.75
2022-08-03T17:37:05.496Z,100525.72
2022-08-03T17:39:58.833Z,100524.06
2022-08-03T17:42:30.769Z,100532.97
2022-08-03T17:45:02.392Z,100523.88
2022-08-03T17:47:41.935Z,100524.72
2022-08-03T17:50:25.026Z,100524.72
2022-08-03T17:53:15.213Z,100528.25
2022-08-03T17:56:42.530Z,100537.53
2022-08-03T17:59:16.122Z,100533.25
2022-08-03T18:02:33.402Z,100550.63
2022-08-03T18:05:16.067Z,100555.38
2022-08-03T18:08:01.507Z,100551.00
2022-08-03T18:10:36.325Z,100556.22
2022-08-03T18:13:30.577Z,100557.41
2022-08-03T18:16:06.526Z,100555.69
2022-08-03T18:18:43.068Z,100564.31
2022-08-03T18:21:16.985Z,100569.31
2022-08-03T18:23:45.936Z,100568.81
2022-08-03T18:26:18.965Z,100569.00
2022-08-03T18:28:49.411Z,100562.41
2022-08-03T18:31:59.719Z,100561.75
2022-08-03T18:36:58.413Z,100560.03
2022-08-03T18:39:27.926Z,100563.44
2022-08-03T18:41:57.653Z,100574.03
2022-08-03T18:44:52.631Z,100579.22
2022-08-03T18:47:55.386Z,100566.41
2022-08-03T18:50:37.230Z,100578.03
2022-08-03T18:53:19.311Z,100566.91
2022-08-03T18:56:03.348Z,100566.75
2022-08-03T18:59:02.267Z,100570.78
2022-08-03T19:02:00.827Z,100567.06
2022-08-03T19:04:42.253Z,100572.81
2022-08-03T19:07:17.696Z,100569.44
2022-08-03T19:09:54.810Z,100570.41
2022-08-03T19:12:31.137Z,100570.59
2022-08-03T19:15:15.571Z,100564.34
2022-08-03T19:17:53.356Z,100570.41
2022-08-03T19:20:30.914Z,100562.81
2022-08-03T19:23:00.275Z,100561.66
2022-08-03T19:25:34.803Z,100570.53
2022-08-03T19:28:08.861Z,100561.63
2022-08-03T19:30:46.462Z,100559.06
2022-08-03T19:33:22.833Z,100566.00
2022-08-03T19:35:54.600Z,100567.84
2022-08-03T19:38:28.360Z,100563.97
2022-08-03T19:41:00.930Z,100563.13
2022-08-03T19:43:52.850Z,100568.03
2022-08-03T19:46:30.160Z,100568.31
2022-08-03T19:49:15.372Z,100573.34
2022-08-03T19:52:02.592Z,100569.97
2022-08-03T19:54:53.239Z,100565.97
2022-08-03T19:57:27.308Z,100570.50
2022-08-03T19:59:56.957Z,100566.97
2022-08-03T20:02:26.767Z,100570.81
2022-08-03T20:04:57.352Z,100574.69
2022-08-03T20:07:25.978Z,100577.69
2022-08-03T20:09:56.554Z,100574.66
2022-08-03T20:12:29.201Z,100575.34
2022-08-03T20:14:58.238Z,100574.13
2022-08-03T20:17:54.410Z,100568.06
2022-08-03T20:20:19.830Z,100568.66
2022-08-03T20:22:52.904Z,100566.16
2022-08-03T20:25:38.613Z,100567.00
2022-08-03T20:28:14.331Z,100570.91
2022-08-03T20:30:44.423Z,100561.59
2022-08-03T20:33:18.411Z,100566.66
2022-08-03T20:35:49.534Z,100565.53
2022-08-03T20:38:19.233Z,100566.50
2022-08-03T20:40:48.464Z,100561.25
2022-08-03T20:43:17.089Z,100561.66
2022-08-03T20:45:59.415Z,100566.38
2022-08-03T20:48:37.376Z,100565.19
2022-08-03T20:51:19.349Z,100556.44
2022-08-03T20:53:59.438Z,100555.88
2022-08-03T20:56:35.980Z,100551.34
2022-08-03T20:59:14.968Z,100557.06
2022-08-03T21:01:44.370Z,100558.75
2022-08-03T21:04:13.473Z,100548.63
2022-08-03T21:06:58.448Z,100551.31
2022-08-03T21:09:33.346Z,100548.75
2022-08-03T21:12:11.555Z,100539.28
2022-08-03T21:13:04.919Z,100568.13
2022-08-03T21:14:51.887Z,100548.75
2022-08-03T21:17:38.358Z,100553.50
2022-08-03T21:20:10.005Z,100555.97
2022-08-03T21:22:42.735Z,100562.19
2022-08-03T21:25:12.985Z,100555.16
2022-08-03T21:27:41.821Z,100549.78
2022-08-03T21:30:10.717Z,100545.25
2022-08-03T21:32:40.420Z,100548.28
2022-08-03T21:35:10.292Z,100552.53
2022-08-03T21:37:40.042Z,100556.22
2022-08-03T21:40:10.809Z,100554.66
2022-08-03T21:42:43.925Z,100552.69
2022-08-03T21:45:17.083Z,100556.69
2022-08-03T21:47:45.760Z,100563.53
2022-08-03T21:50:13.914Z,100563.53
2022-08-03T21:52:46.606Z,100558.81
2022-08-03T21:55:18.412Z,100561.84
2022-08-03T21:57:53.667Z,100563.13
2022-08-03T22:00:25.948Z,100558.97
2022-08-03T22:02:58.609Z,100567.34
2022-08-03T22:05:42.432Z,100563.28
2022-08-03T22:08:14.496Z,100568.84
2022-08-03T22:10:46.151Z,100570.69
2022-08-03T22:13:14.996Z,100569.31
2022-08-03T22:15:42.657Z,100565.44
2022-08-03T22:18:10.735Z,100564.59
2022-08-03T22:20:38.298Z,100561.59
2022-08-03T22:23:07.520Z,100576.13
2022-08-03T22:25:38.612Z,100575.13
2022-08-03T22:28:09.940Z,100582.19
2022-08-03T22:30:38.957Z,100588.44
2022-08-03T22:33:11.038Z,100581.34
2022-08-03T22:35:48.241Z,100580.03
2022-08-03T22:38:18.435Z,100566.38
2022-08-03T22:40:49.899Z,100572.84
2022-08-03T22:43:17.541Z,100572.16
2022-08-03T22:46:08.931Z,100575.53
2022-08-03T22:48:41.343Z,100569.63
2022-08-03T22:51:10.559Z,100567.41
2022-08-03T22:53:39.737Z,100572.63
2022-08-03T22:56:08.816Z,100570.78
2022-08-03T22:58:36.594Z,100569.22
2022-08-03T23:01:08.021Z,100575.44
2022-08-03T23:04:01.221Z,100583.19
2022-08-03T23:06:33.315Z,100582.56
2022-08-03T23:09:06.886Z,100584.88
2022-08-03T23:11:45.437Z,100579.13
2022-08-03T23:14:16.159Z,100586.03
2022-08-03T23:16:45.915Z,100581.75
2022-08-03T23:19:17.411Z,100584.59
2022-08-03T23:22:02.859Z,100584.44
2022-08-03T23:24:36.069Z,100582.25
2022-08-03T23:27:08.695Z,100585.94
2022-08-03T23:29:43.114Z,100585.44
2022-08-03T23:32:13.046Z,100585.06
2022-08-03T23:35:01.484Z,100582.72
2022-08-03T23:37:30.138Z,100579.47
2022-08-03T23:39:59.416Z,100583.72
2022-08-03T23:42:27.642Z,100578.91
2022-08-03T23:45:05.450Z,100586.66
2022-08-03T23:47:46.235Z,100584.34
2022-08-03T23:50:16.026Z,100586.69
2022-08-03T23:53:02.608Z,100589.25
2022-08-03T23:56:01.065Z,100589.03
2022-08-03T23:59:01.122Z,100583.66
